sensor_id;sensor_type;location;lat;lon;timestamp;temperature;humidity
913;DHT22;443;51.448;7.028;2023-07-28T00:00:55;18.80;88.20
913;DHT22;443;51.448;7.028;2023-07-28T00:03:22;18.70;87.10
913;DHT22;443;51.448;7.028;2023-07-28T00:05:49;18.80;87.80
913;DHT22;443;51.448;7.028;2023-07-28T00:08:16;18.80;87.30
913;DHT22;443;51.448;7.028;2023-07-28T00:10:42;18.80;86.40
913;DHT22;443;51.448;7.028;2023-07-28T00:13:09;18.80;88.10
913;DHT22;443;51.448;7.028;2023-07-28T00:15:37;18.70;86.70
913;DHT22;443;51.448;7.028;2023-07-28T00:18:04;18.80;88.00
913;DHT22;443;51.448;7.028;2023-07-28T00:20:31;18.80;87.30
913;DHT22;443;51.448;7.028;2023-07-28T00:22:57;18.80;88.00
913;DHT22;443;51.448;7.028;2023-07-28T00:25:24;18.70;87.00
913;DHT22;443;51.448;7.028;2023-07-28T00:27:51;18.80;87.40
913;DHT22;443;51.448;7.028;2023-07-28T00:30:19;18.80;87.30
913;DHT22;443;51.448;7.028;2023-07-28T00:32:48;18.80;87.40
913;DHT22;443;51.448;7.028;2023-07-28T00:35:15;18.80;87.60
913;DHT22;443;51.448;7.028;2023-07-28T00:37:41;18.70;86.90
913;DHT22;443;51.448;7.028;2023-07-28T00:40:09;18.70;87.00
913;DHT22;443;51.448;7.028;2023-07-28T00:42:36;18.70;87.10
913;DHT22;443;51.448;7.028;2023-07-28T00:45:04;18.70;88.50
913;DHT22;443;51.448;7.028;2023-07-28T00:47:31;18.70;89.00
913;DHT22;443;51.448;7.028;2023-07-28T00:49:59;18.70;88.30
913;DHT22;443;51.448;7.028;2023-07-28T00:52:26;18.70;89.10
913;DHT22;443;51.448;7.028;2023-07-28T00:54:53;18.70;87.70
913;DHT22;443;51.448;7.028;2023-07-28T00:57:20;18.70;88.00
913;DHT22;443;51.448;7.028;2023-07-28T00:59:47;18.70;88.80
913;DHT22;443;51.448;7.028;2023-07-28T01:02:13;18.70;87.60
913;DHT22;443;51.448;7.028;2023-07-28T01:04:40;18.70;88.40
913;DHT22;443;51.448;7.028;2023-07-28T01:07:12;18.70;87.00
913;DHT22;443;51.448;7.028;2023-07-28T01:09:46;18.70;87.20
913;DHT22;443;51.448;7.028;2023-07-28T01:12:13;18.80;87.50
913;DHT22;443;51.448;7.028;2023-07-28T01:14:40;18.70;87.70
913;DHT22;443;51.448;7.028;2023-07-28T01:17:06;18.70;86.80
913;DHT22;443;51.448;7.028;2023-07-28T01:19:33;18.80;87.50
913;DHT22;443;51.448;7.028;2023-07-28T01:22:13;18.80;87.40
913;DHT22;443;51.448;7.028;2023-07-28T01:24:51;18.70;86.90
913;DHT22;443;51.448;7.028;2023-07-28T01:27:23;18.70;87.20
913;DHT22;443;51.448;7.028;2023-07-28T01:29:50;18.80;87.80
913;DHT22;443;51.448;7.028;2023-07-28T01:32:17;18.70;87.70
913;DHT22;443;51.448;7.028;2023-07-28T01:34:44;18.70;87.50
913;DHT22;443;51.448;7.028;2023-07-28T01:37:11;18.80;89.40
913;DHT22;443;51.448;7.028;2023-07-28T01:39:37;18.70;87.20
913;DHT22;443;51.448;7.028;2023-07-28T01:42:05;18.70;87.00
913;DHT22;443;51.448;7.028;2023-07-28T01:44:33;18.70;87.20
913;DHT22;443;51.448;7.028;2023-07-28T01:46:59;18.80;87.10
913;DHT22;443;51.448;7.028;2023-07-28T01:49:26;18.70;86.80
913;DHT22;443;51.448;7.028;2023-07-28T01:51:53;18.80;87.90
913;DHT22;443;51.448;7.028;2023-07-28T01:54:20;18.80;87.80
913;DHT22;443;51.448;7.028;2023-07-28T01:56:46;18.70;87.10
913;DHT22;443;51.448;7.028;2023-07-28T01:59:13;18.70;87.70
913;DHT22;443;51.448;7.028;2023-07-28T02:01:41;18.80;87.80
913;DHT22;443;51.448;7.028;2023-07-28T02:04:08;18.80;88.50
913;DHT22;443;51.448;7.028;2023-07-28T02:06:34;18.70;87.60
913;DHT22;443;51.448;7.028;2023-07-28T02:09:01;18.80;88.50
913;DHT22;443;51.448;7.028;2023-07-28T02:11:28;18.70;87.90
913;DHT22;443;51.448;7.028;2023-07-28T02:13:55;18.70;87.50
913;DHT22;443;51.448;7.028;2023-07-28T02:16:21;18.70;88.30
913;DHT22;443;51.448;7.028;2023-07-28T02:18:49;18.70;87.30
913;DHT22;443;51.448;7.028;2023-07-28T02:21:16;18.70;86.90
913;DHT22;443;51.448;7.028;2023-07-28T02:23:43;18.70;88.00
913;DHT22;443;51.448;7.028;2023-07-28T02:26:10;18.80;88.10
913;DHT22;443;51.448;7.028;2023-07-28T02:28:37;18.80;87.60
913;DHT22;443;51.448;7.028;2023-07-28T02:31:03;18.70;87.60
913;DHT22;443;51.448;7.028;2023-07-28T02:33:30;18.80;87.90
913;DHT22;443;51.448;7.028;2023-07-28T02:36:02;18.80;88.30
913;DHT22;443;51.448;7.028;2023-07-28T02:38:29;18.70;87.20
913;DHT22;443;51.448;7.028;2023-07-28T02:40:55;18.70;87.10
913;DHT22;443;51.448;7.028;2023-07-28T02:43:22;18.70;87.60
913;DHT22;443;51.448;7.028;2023-07-28T02:45:53;18.80;87.30
913;DHT22;443;51.448;7.028;2023-07-28T02:48:20;18.80;87.20
913;DHT22;443;51.448;7.028;2023-07-28T02:50:48;18.80;87.30
913;DHT22;443;51.448;7.028;2023-07-28T02:53:17;18.80;86.80
913;DHT22;443;51.448;7.028;2023-07-28T02:55:45;18.80;86.80
913;DHT22;443;51.448;7.028;2023-07-28T02:58:12;18.80;86.90
913;DHT22;443;51.448;7.028;2023-07-28T03:00:40;18.80;86.90
913;DHT22;443;51.448;7.028;2023-07-28T03:03:07;18.80;87.10
913;DHT22;443;51.448;7.028;2023-07-28T03:05:36;18.80;87.90
913;DHT22;443;51.448;7.028;2023-07-28T03:08:03;18.80;87.90
913;DHT22;443;51.448;7.028;2023-07-28T03:10:31;18.80;87.60
913;DHT22;443;51.448;7.028;2023-07-28T03:12:58;18.80;87.20
913;DHT22;443;51.448;7.028;2023-07-28T03:15:25;18.80;87.30
913;DHT22;443;51.448;7.028;2023-07-28T03:17:52;18.80;87.20
913;DHT22;443;51.448;7.028;2023-07-28T03:20:20;18.80;87.70
913;DHT22;443;51.448;7.028;2023-07-28T03:22:47;18.80;87.20
913;DHT22;443;51.448;7.028;2023-07-28T03:25:13;18.80;87.10
913;DHT22;443;51.448;7.028;2023-07-28T03:27:41;18.80;86.70
913;DHT22;443;51.448;7.028;2023-07-28T03:30:08;18.80;86.60
913;DHT22;443;51.448;7.028;2023-07-28T03:32:36;18.80;86.80
913;DHT22;443;51.448;7.028;2023-07-28T03:35:03;18.80;87.00
913;DHT22;443;51.448;7.028;2023-07-28T03:37:30;18.80;86.90
913;DHT22;443;51.448;7.028;2023-07-28T03:39:57;18.80;87.00
913;DHT22;443;51.448;7.028;2023-07-28T03:42:24;18.80;87.40
913;DHT22;443;51.448;7.028;2023-07-28T03:44:52;18.80;86.90
913;DHT22;443;51.448;7.028;2023-07-28T03:47:19;18.80;86.60
913;DHT22;443;51.448;7.028;2023-07-28T03:49:46;18.80;86.70
913;DHT22;443;51.448;7.028;2023-07-28T03:52:12;18.80;86.80
913;DHT22;443;51.448;7.028;2023-07-28T03:54:39;18.80;86.70
913;DHT22;443;51.448;7.028;2023-07-28T03:57:08;18.80;86.70
913;DHT22;443;51.448;7.028;2023-07-28T03:59:35;18.80;86.80
913;DHT22;443;51.448;7.028;2023-07-28T04:02:03;18.80;86.70
913;DHT22;443;51.448;7.028;2023-07-28T04:04:30;18.80;86.70
913;DHT22;443;51.448;7.028;2023-07-28T04:06:57;18.80;86.60
913;DHT22;443;51.448;7.028;2023-07-28T04:09:24;18.80;86.60
913;DHT22;443;51.448;7.028;2023-07-28T04:11:51;18.80;86.50
913;DHT22;443;51.448;7.028;2023-07-28T04:14:17;18.90;87.20
913;DHT22;443;51.448;7.028;2023-07-28T04:16:44;18.80;86.60
913;DHT22;443;51.448;7.028;2023-07-28T04:19:12;18.80;86.80
913;DHT22;443;51.448;7.028;2023-07-28T04:21:39;18.90;87.20
913;DHT22;443;51.448;7.028;2023-07-28T04:24:06;18.80;86.50
913;DHT22;443;51.448;7.028;2023-07-28T04:26:33;18.80;86.70
913;DHT22;443;51.448;7.028;2023-07-28T04:29:00;18.80;86.90
913;DHT22;443;51.448;7.028;2023-07-28T04:31:27;18.80;86.40
913;DHT22;443;51.448;7.028;2023-07-28T04:33:53;18.80;86.40
913;DHT22;443;51.448;7.028;2023-07-28T04:36:22;18.80;86.30
913;DHT22;443;51.448;7.028;2023-07-28T04:38:48;18.80;86.40
913;DHT22;443;51.448;7.028;2023-07-28T04:41:15;18.80;86.20
913;DHT22;443;51.448;7.028;2023-07-28T04:43:42;18.80;86.20
913;DHT22;443;51.448;7.028;2023-07-28T04:46:08;18.80;86.20
913;DHT22;443;51.448;7.028;2023-07-28T04:48:35;18.80;86.30
913;DHT22;443;51.448;7.028;2023-07-28T04:51:02;18.80;86.20
913;DHT22;443;51.448;7.028;2023-07-28T04:53:30;18.80;86.50
913;DHT22;443;51.448;7.028;2023-07-28T04:55:57;18.80;86.20
913;DHT22;443;51.448;7.028;2023-07-28T04:58:23;18.80;86.00
913;DHT22;443;51.448;7.028;2023-07-28T05:00:50;18.80;86.10
913;DHT22;443;51.448;7.028;2023-07-28T05:03:17;18.80;86.10
913;DHT22;443;51.448;7.028;2023-07-28T05:05:44;18.80;85.90
913;DHT22;443;51.448;7.028;2023-07-28T05:08:11;18.80;86.00
913;DHT22;443;51.448;7.028;2023-07-28T05:10:41;18.80;86.30
913;DHT22;443;51.448;7.028;2023-07-28T05:13:08;18.80;86.00
913;DHT22;443;51.448;7.028;2023-07-28T05:15:35;18.80;86.10
913;DHT22;443;51.448;7.028;2023-07-28T05:18:02;18.80;86.30
913;DHT22;443;51.448;7.028;2023-07-28T05:20:28;18.80;85.90
913;DHT22;443;51.448;7.028;2023-07-28T05:22:55;18.90;86.10
913;DHT22;443;51.448;7.028;2023-07-28T05:25:22;18.90;86.50
913;DHT22;443;51.448;7.028;2023-07-28T05:27:50;18.90;86.30
913;DHT22;443;51.448;7.028;2023-07-28T05:30:17;18.90;86.10
913;DHT22;443;51.448;7.028;2023-07-28T05:32:44;18.90;86.00
913;DHT22;443;51.448;7.028;2023-07-28T05:35:11;18.80;85.80
913;DHT22;443;51.448;7.028;2023-07-28T05:37:38;18.90;86.70
913;DHT22;443;51.448;7.028;2023-07-28T05:40:06;18.90;86.90
913;DHT22;443;51.448;7.028;2023-07-28T05:42:33;18.90;86.30
913;DHT22;443;51.448;7.028;2023-07-28T05:45:01;18.90;86.60
913;DHT22;443;51.448;7.028;2023-07-28T05:47:29;18.90;86.00
913;DHT22;443;51.448;7.028;2023-07-28T05:49:56;18.90;86.10
913;DHT22;443;51.448;7.028;2023-07-28T05:52:22;18.90;86.70
913;DHT22;443;51.448;7.028;2023-07-28T05:54:49;18.90;87.20
913;DHT22;443;51.448;7.028;2023-07-28T05:57:16;18.90;86.40
913;DHT22;443;51.448;7.028;2023-07-28T05:59:43;18.90;86.10
913;DHT22;443;51.448;7.028;2023-07-28T06:02:11;18.90;86.30
913;DHT22;443;51.448;7.028;2023-07-28T06:04:37;18.90;86.30
913;DHT22;443;51.448;7.028;2023-07-28T06:07:05;18.90;85.90
913;DHT22;443;51.448;7.028;2023-07-28T06:09:32;18.90;85.90
913;DHT22;443;51.448;7.028;2023-07-28T06:11:59;18.90;86.30
913;DHT22;443;51.448;7.028;2023-07-28T06:14:26;18.90;86.00
913;DHT22;443;51.448;7.028;2023-07-28T06:16:53;18.90;86.60
913;DHT22;443;51.448;7.028;2023-07-28T06:19:21;18.90;86.80
913;DHT22;443;51.448;7.028;2023-07-28T06:21:49;18.90;86.10
913;DHT22;443;51.448;7.028;2023-07-28T06:24:16;18.90;88.40
913;DHT22;443;51.448;7.028;2023-07-28T06:26:43;18.90;86.10
913;DHT22;443;51.448;7.028;2023-07-28T06:29:10;18.90;86.40
913;DHT22;443;51.448;7.028;2023-07-28T06:31:37;18.90;86.40
913;DHT22;443;51.448;7.028;2023-07-28T06:34:03;18.90;86.40
913;DHT22;443;51.448;7.028;2023-07-28T06:36:32;18.90;86.20
913;DHT22;443;51.448;7.028;2023-07-28T06:38:58;18.90;87.60
913;DHT22;443;51.448;7.028;2023-07-28T06:41:25;18.90;86.50
913;DHT22;443;51.448;7.028;2023-07-28T06:43:52;18.90;86.10
913;DHT22;443;51.448;7.028;2023-07-28T06:46:18;18.90;86.80
913;DHT22;443;51.448;7.028;2023-07-28T06:48:45;18.90;85.90
913;DHT22;443;51.448;7.028;2023-07-28T06:51:12;18.90;86.40
913;DHT22;443;51.448;7.028;2023-07-28T06:53:40;18.90;85.90
913;DHT22;443;51.448;7.028;2023-07-28T06:56:07;18.90;86.40
913;DHT22;443;51.448;7.028;2023-07-28T06:58:34;18.90;86.60
913;DHT22;443;51.448;7.028;2023-07-28T07:01:00;18.90;85.90
913;DHT22;443;51.448;7.028;2023-07-28T07:03:27;18.90;85.80
913;DHT22;443;51.448;7.028;2023-07-28T07:05:54;18.90;86.10
913;DHT22;443;51.448;7.028;2023-07-28T07:08:21;18.90;86.70
913;DHT22;443;51.448;7.028;2023-07-28T07:10:49;18.90;86.50
913;DHT22;443;51.448;7.028;2023-07-28T07:13:17;18.90;85.80
913;DHT22;443;51.448;7.028;2023-07-28T07:15:43;18.90;85.80
913;DHT22;443;51.448;7.028;2023-07-28T07:18:11;18.90;87.20
913;DHT22;443;51.448;7.028;2023-07-28T07:20:38;18.90;86.70
913;DHT22;443;51.448;7.028;2023-07-28T07:23:05;18.90;86.30
913;DHT22;443;51.448;7.028;2023-07-28T07:25:32;18.90;86.00
913;DHT22;443;51.448;7.028;2023-07-28T07:28:00;19.00;87.00
913;DHT22;443;51.448;7.028;2023-07-28T07:30:27;18.90;85.70
913;DHT22;443;51.448;7.028;2023-07-28T07:32:53;18.90;86.00
913;DHT22;443;51.448;7.028;2023-07-28T07:35:20;18.90;86.20
913;DHT22;443;51.448;7.028;2023-07-28T07:37:47;18.90;86.10
913;DHT22;443;51.448;7.028;2023-07-28T07:40:14;18.90;85.80
913;DHT22;443;51.448;7.028;2023-07-28T07:42:41;19.00;86.60
913;DHT22;443;51.448;7.028;2023-07-28T07:45:11;18.90;85.80
913;DHT22;443;51.448;7.028;2023-07-28T07:47:38;19.00;86.10
913;DHT22;443;51.448;7.028;2023-07-28T07:50:06;19.00;87.60
913;DHT22;443;51.448;7.028;2023-07-28T07:52:34;19.00;86.40
913;DHT22;443;51.448;7.028;2023-07-28T07:55:01;19.00;86.00
913;DHT22;443;51.448;7.028;2023-07-28T07:57:27;19.00;86.90
913;DHT22;443;51.448;7.028;2023-07-28T07:59:54;19.00;87.50
913;DHT22;443;51.448;7.028;2023-07-28T08:02:22;19.00;87.40
913;DHT22;443;51.448;7.028;2023-07-28T08:04:51;19.00;87.00
913;DHT22;443;51.448;7.028;2023-07-28T08:07:18;19.00;87.50
913;DHT22;443;51.448;7.028;2023-07-28T08:09:45;19.00;86.10
913;DHT22;443;51.448;7.028;2023-07-28T08:12:12;19.00;86.20
913;DHT22;443;51.448;7.028;2023-07-28T08:14:39;19.00;86.10
913;DHT22;443;51.448;7.028;2023-07-28T08:17:06;19.00;85.90
913;DHT22;443;51.448;7.028;2023-07-28T08:19:34;19.00;85.50
913;DHT22;443;51.448;7.028;2023-07-28T08:22:01;19.00;85.70
913;DHT22;443;51.448;7.028;2023-07-28T08:24:29;19.00;85.70
913;DHT22;443;51.448;7.028;2023-07-28T08:26:56;19.00;85.60
913;DHT22;443;51.448;7.028;2023-07-28T08:29:23;19.00;85.50
913;DHT22;443;51.448;7.028;2023-07-28T08:31:49;19.00;85.50
913;DHT22;443;51.448;7.028;2023-07-28T08:34:16;19.00;85.50
913;DHT22;443;51.448;7.028;2023-07-28T08:36:45;19.00;85.40
913;DHT22;443;51.448;7.028;2023-07-28T08:39:12;19.00;85.70
913;DHT22;443;51.448;7.028;2023-07-28T08:41:40;19.00;85.60
913;DHT22;443;51.448;7.028;2023-07-28T08:44:07;19.00;85.40
913;DHT22;443;51.448;7.028;2023-07-28T08:46:34;19.00;85.40
913;DHT22;443;51.448;7.028;2023-07-28T08:49:01;19.10;86.40
913;DHT22;443;51.448;7.028;2023-07-28T08:51:28;19.10;85.60
913;DHT22;443;51.448;7.028;2023-07-28T08:53:56;19.10;85.80
913;DHT22;443;51.448;7.028;2023-07-28T08:56:23;19.10;85.70
913;DHT22;443;51.448;7.028;2023-07-28T08:58:57;19.10;85.70
913;DHT22;443;51.448;7.028;2023-07-28T09:01:24;19.00;85.10
913;DHT22;443;51.448;7.028;2023-07-28T09:03:51;19.00;85.30
913;DHT22;443;51.448;7.028;2023-07-28T09:06:18;19.10;88.50
913;DHT22;443;51.448;7.028;2023-07-28T09:08:45;19.10;85.50
913;DHT22;443;51.448;7.028;2023-07-28T09:11:13;19.10;85.20
913;DHT22;443;51.448;7.028;2023-07-28T09:13:41;19.10;85.10
913;DHT22;443;51.448;7.028;2023-07-28T09:16:16;19.10;85.10
913;DHT22;443;51.448;7.028;2023-07-28T09:18:43;19.10;86.40
913;DHT22;443;51.448;7.028;2023-07-28T09:21:16;19.10;85.40
913;DHT22;443;51.448;7.028;2023-07-28T09:23:44;19.10;84.70
913;DHT22;443;51.448;7.028;2023-07-28T09:26:12;19.10;85.80
913;DHT22;443;51.448;7.028;2023-07-28T09:28:41;19.20;86.50
913;DHT22;443;51.448;7.028;2023-07-28T09:31:08;19.10;84.70
913;DHT22;443;51.448;7.028;2023-07-28T09:33:36;19.20;87.40
913;DHT22;443;51.448;7.028;2023-07-28T09:36:10;19.10;86.10
913;DHT22;443;51.448;7.028;2023-07-28T09:38:38;19.20;86.20
913;DHT22;443;51.448;7.028;2023-07-28T09:41:07;19.10;84.70
913;DHT22;443;51.448;7.028;2023-07-28T09:43:37;19.10;85.40
913;DHT22;443;51.448;7.028;2023-07-28T09:46:05;19.20;85.80
913;DHT22;443;51.448;7.028;2023-07-28T09:48:33;19.20;88.30
913;DHT22;443;51.448;7.028;2023-07-28T09:51:05;19.10;85.40
913;DHT22;443;51.448;7.028;2023-07-28T09:53:35;19.20;85.10
913;DHT22;443;51.448;7.028;2023-07-28T09:56:05;19.20;88.10
913;DHT22;443;51.448;7.028;2023-07-28T09:58:34;19.20;84.90
913;DHT22;443;51.448;7.028;2023-07-28T10:01:05;19.20;85.20
913;DHT22;443;51.448;7.028;2023-07-28T10:03:32;19.20;84.90
913;DHT22;443;51.448;7.028;2023-07-28T10:05:59;19.20;85.10
913;DHT22;443;51.448;7.028;2023-07-28T10:08:26;19.10;84.40
913;DHT22;443;51.448;7.028;2023-07-28T10:10:54;19.20;85.30
913;DHT22;443;51.448;7.028;2023-07-28T10:13:22;19.30;86.50
913;DHT22;443;51.448;7.028;2023-07-28T10:15:50;19.20;85.30
913;DHT22;443;51.448;7.028;2023-07-28T10:18:19;19.20;85.00
913;DHT22;443;51.448;7.028;2023-07-28T10:20:47;19.20;84.80
913;DHT22;443;51.448;7.028;2023-07-28T10:23:16;19.20;84.90
913;DHT22;443;51.448;7.028;2023-07-28T10:25:44;19.20;84.20
913;DHT22;443;51.448;7.028;2023-07-28T10:28:26;19.20;84.50
913;DHT22;443;51.448;7.028;2023-07-28T10:30:55;19.30;86.90
913;DHT22;443;51.448;7.028;2023-07-28T10:33:33;19.20;84.30
913;DHT22;443;51.448;7.028;2023-07-28T10:36:11;19.30;85.70
913;DHT22;443;51.448;7.028;2023-07-28T10:38:39;19.30;85.00
913;DHT22;443;51.448;7.028;2023-07-28T10:41:08;19.30;85.40
913;DHT22;443;51.448;7.028;2023-07-28T10:43:35;19.30;87.20
913;DHT22;443;51.448;7.028;2023-07-28T10:46:02;19.30;84.40
913;DHT22;443;51.448;7.028;2023-07-28T10:48:31;19.30;86.30
913;DHT22;443;51.448;7.028;2023-07-28T10:50:58;19.30;85.40
913;DHT22;443;51.448;7.028;2023-07-28T10:53:26;19.30;84.50
913;DHT22;443;51.448;7.028;2023-07-28T10:55:53;19.20;84.30
913;DHT22;443;51.448;7.028;2023-07-28T10:58:19;19.20;84.20
913;DHT22;443;51.448;7.028;2023-07-28T11:00:46;19.30;84.10
913;DHT22;443;51.448;7.028;2023-07-28T11:03:13;19.30;84.60
913;DHT22;443;51.448;7.028;2023-07-28T11:05:41;19.30;84.20
913;DHT22;443;51.448;7.028;2023-07-28T11:08:08;19.30;84.20
913;DHT22;443;51.448;7.028;2023-07-28T11:10:36;19.30;84.30
913;DHT22;443;51.448;7.028;2023-07-28T11:13:05;19.30;84.20
913;DHT22;443;51.448;7.028;2023-07-28T11:15:32;19.30;84.40
913;DHT22;443;51.448;7.028;2023-07-28T11:17:59;19.30;84.00
913;DHT22;443;51.448;7.028;2023-07-28T11:20:27;19.30;84.60
913;DHT22;443;51.448;7.028;2023-07-28T11:22:57;19.30;84.20
913;DHT22;443;51.448;7.028;2023-07-28T11:25:25;19.30;84.10
913;DHT22;443;51.448;7.028;2023-07-28T11:27:53;19.30;84.30
913;DHT22;443;51.448;7.028;2023-07-28T11:30:21;19.30;84.00
913;DHT22;443;51.448;7.028;2023-07-28T11:32:50;19.30;84.00
913;DHT22;443;51.448;7.028;2023-07-28T11:35:18;19.40;85.30
913;DHT22;443;51.448;7.028;2023-07-28T11:37:46;19.30;83.90
913;DHT22;443;51.448;7.028;2023-07-28T11:40:17;19.30;84.00
913;DHT22;443;51.448;7.028;2023-07-28T11:42:47;19.30;84.30
913;DHT22;443;51.448;7.028;2023-07-28T11:45:16;19.20;84.40
913;DHT22;443;51.448;7.028;2023-07-28T11:47:52;19.20;84.40
913;DHT22;443;51.448;7.028;2023-07-28T11:50:24;19.20;84.30
913;DHT22;443;51.448;7.028;2023-07-28T11:52:51;19.30;84.50
913;DHT22;443;51.448;7.028;2023-07-28T11:55:20;19.20;84.40
913;DHT22;443;51.448;7.028;2023-07-28T11:57:48;19.30;84.40
913;DHT22;443;51.448;7.028;2023-07-28T12:00:15;19.20;84.20
913;DHT22;443;51.448;7.028;2023-07-28T12:02:44;19.30;84.40
913;DHT22;443;51.448;7.028;2023-07-28T12:05:15;19.30;84.30
913;DHT22;443;51.448;7.028;2023-07-28T12:07:47;19.40;85.40
913;DHT22;443;51.448;7.028;2023-07-28T12:10:14;19.30;84.70
913;DHT22;443;51.448;7.028;2023-07-28T12:12:45;19.30;84.70
913;DHT22;443;51.448;7.028;2023-07-28T12:15:20;19.30;84.60
913;DHT22;443;51.448;7.028;2023-07-28T12:18:08;19.30;84.60
913;DHT22;443;51.448;7.028;2023-07-28T12:20:37;19.30;84.60
913;DHT22;443;51.448;7.028;2023-07-28T12:23:05;19.30;84.50
913;DHT22;443;51.448;7.028;2023-07-28T12:25:32;19.30;84.20
913;DHT22;443;51.448;7.028;2023-07-28T12:28:00;19.30;84.40
913;DHT22;443;51.448;7.028;2023-07-28T12:30:27;19.40;86.10
913;DHT22;443;51.448;7.028;2023-07-28T12:32:54;19.40;84.20
913;DHT22;443;51.448;7.028;2023-07-28T12:35:21;19.50;85.80
913;DHT22;443;51.448;7.028;2023-07-28T12:37:50;19.40;84.20
913;DHT22;443;51.448;7.028;2023-07-28T12:40:17;19.40;84.40
913;DHT22;443;51.448;7.028;2023-07-28T12:42:44;19.40;84.50
913;DHT22;443;51.448;7.028;2023-07-28T12:45:13;19.40;84.40
913;DHT22;443;51.448;7.028;2023-07-28T12:47:40;19.40;84.20
913;DHT22;443;51.448;7.028;2023-07-28T12:50:08;19.40;84.40
913;DHT22;443;51.448;7.028;2023-07-28T12:52:35;19.40;83.80
913;DHT22;443;51.448;7.028;2023-07-28T12:55:02;19.50;84.60
913;DHT22;443;51.448;7.028;2023-07-28T12:57:29;19.50;83.80
913;DHT22;443;51.448;7.028;2023-07-28T12:59:56;19.50;84.80
913;DHT22;443;51.448;7.028;2023-07-28T13:02:24;19.50;83.90
913;DHT22;443;51.448;7.028;2023-07-28T13:04:51;19.60;84.10
913;DHT22;443;51.448;7.028;2023-07-28T13:07:17;19.50;83.90
913;DHT22;443;51.448;7.028;2023-07-28T13:09:44;19.50;83.60
913;DHT22;443;51.448;7.028;2023-07-28T13:12:12;19.50;83.70
913;DHT22;443;51.448;7.028;2023-07-28T13:14:38;19.60;84.50
913;DHT22;443;51.448;7.028;2023-07-28T13:17:05;19.60;85.00
913;DHT22;443;51.448;7.028;2023-07-28T13:19:34;19.60;83.60
913;DHT22;443;51.448;7.028;2023-07-28T13:22:00;19.60;83.90
913;DHT22;443;51.448;7.028;2023-07-28T13:24:27;19.70;85.50
913;DHT22;443;51.448;7.028;2023-07-28T13:26:54;19.70;83.80
913;DHT22;443;51.448;7.028;2023-07-28T13:29:21;19.70;83.50
913;DHT22;443;51.448;7.028;2023-07-28T13:31:48;19.70;85.30
913;DHT22;443;51.448;7.028;2023-07-28T13:34:14;19.70;83.10
913;DHT22;443;51.448;7.028;2023-07-28T13:36:42;19.80;83.90
913;DHT22;443;51.448;7.028;2023-07-28T13:39:09;19.80;84.60
913;DHT22;443;51.448;7.028;2023-07-28T13:41:36;19.90;84.60
913;DHT22;443;51.448;7.028;2023-07-28T13:44:03;19.80;83.00
913;DHT22;443;51.448;7.028;2023-07-28T13:46:30;19.80;83.00
913;DHT22;443;51.448;7.028;2023-07-28T13:48:57;19.70;83.00
913;DHT22;443;51.448;7.028;2023-07-28T13:51:24;19.60;83.10
913;DHT22;443;51.448;7.028;2023-07-28T13:53:52;19.60;83.30
913;DHT22;443;51.448;7.028;2023-07-28T13:56:18;19.60;83.30
913;DHT22;443;51.448;7.028;2023-07-28T13:58:45;19.70;85.30
913;DHT22;443;51.448;7.028;2023-07-28T14:01:12;19.70;83.30
913;DHT22;443;51.448;7.028;2023-07-28T14:03:39;19.60;83.30
913;DHT22;443;51.448;7.028;2023-07-28T14:06:06;19.60;83.30
913;DHT22;443;51.448;7.028;2023-07-28T14:08:33;19.60;83.30
913;DHT22;443;51.448;7.028;2023-07-28T14:11:01;19.50;83.20
913;DHT22;443;51.448;7.028;2023-07-28T14:13:28;19.60;83.90
913;DHT22;443;51.448;7.028;2023-07-28T14:15:54;19.70;83.60
913;DHT22;443;51.448;7.028;2023-07-28T14:18:21;19.70;83.50
913;DHT22;443;51.448;7.028;2023-07-28T14:20:48;19.60;83.10
913;DHT22;443;51.448;7.028;2023-07-28T14:23:22;19.80;85.20
913;DHT22;443;51.448;7.028;2023-07-28T14:25:49;19.80;83.60
913;DHT22;443;51.448;7.028;2023-07-28T14:28:18;19.80;83.50
913;DHT22;443;51.448;7.028;2023-07-28T14:30:45;19.70;83.10
913;DHT22;443;51.448;7.028;2023-07-28T14:33:12;19.70;83.40
913;DHT22;443;51.448;7.028;2023-07-28T14:35:39;19.70;84.30
913;DHT22;443;51.448;7.028;2023-07-28T14:38:06;19.70;83.20
913;DHT22;443;51.448;7.028;2023-07-28T14:40:33;19.70;83.40
913;DHT22;443;51.448;7.028;2023-07-28T14:43:00;19.70;83.50
913;DHT22;443;51.448;7.028;2023-07-28T14:45:28;19.70;83.20
913;DHT22;443;51.448;7.028;2023-07-28T14:47:55;19.70;83.30
913;DHT22;443;51.448;7.028;2023-07-28T14:50:21;19.70;83.80
913;DHT22;443;51.448;7.028;2023-07-28T14:52:48;19.80;84.00
913;DHT22;443;51.448;7.028;2023-07-28T14:55:15;19.80;84.70
913;DHT22;443;51.448;7.028;2023-07-28T14:57:42;19.80;83.40
913;DHT22;443;51.448;7.028;2023-07-28T15:00:10;19.80;83.20
913;DHT22;443;51.448;7.028;2023-07-28T15:02:38;19.80;84.70
913;DHT22;443;51.448;7.028;2023-07-28T15:05:05;19.80;85.80
913;DHT22;443;51.448;7.028;2023-07-28T15:07:33;19.80;84.50
913;DHT22;443;51.448;7.028;2023-07-28T15:10:00;19.70;83.40
913;DHT22;443;51.448;7.028;2023-07-28T15:12:27;19.70;83.50
913;DHT22;443;51.448;7.028;2023-07-28T15:14:54;19.60;83.50
913;DHT22;443;51.448;7.028;2023-07-28T15:17:20;19.60;83.60
913;DHT22;443;51.448;7.028;2023-07-28T15:19:49;19.80;86.10
913;DHT22;443;51.448;7.028;2023-07-28T15:22:15;19.70;83.50
913;DHT22;443;51.448;7.028;2023-07-28T15:24:42;19.70;83.40
913;DHT22;443;51.448;7.028;2023-07-28T15:27:09;19.60;83.50
913;DHT22;443;51.448;7.028;2023-07-28T15:29:36;19.60;84.00
913;DHT22;443;51.448;7.028;2023-07-28T15:32:03;19.70;86.80
913;DHT22;443;51.448;7.028;2023-07-28T15:34:30;19.80;84.70
913;DHT22;443;51.448;7.028;2023-07-28T15:37:01;19.80;85.20
913;DHT22;443;51.448;7.028;2023-07-28T15:39:29;19.70;84.70
913;DHT22;443;51.448;7.028;2023-07-28T15:41:56;19.60;83.90
913;DHT22;443;51.448;7.028;2023-07-28T15:44:23;19.60;84.00
913;DHT22;443;51.448;7.028;2023-07-28T15:46:50;19.60;85.10
913;DHT22;443;51.448;7.028;2023-07-28T15:49:18;19.60;83.90
913;DHT22;443;51.448;7.028;2023-07-28T15:51:45;19.60;83.90
913;DHT22;443;51.448;7.028;2023-07-28T15:54:13;19.70;85.20
913;DHT22;443;51.448;7.028;2023-07-28T15:56:40;19.70;84.00
913;DHT22;443;51.448;7.028;2023-07-28T15:59:07;19.70;85.30
913;DHT22;443;51.448;7.028;2023-07-28T16:01:34;19.60;83.90
913;DHT22;443;51.448;7.028;2023-07-28T16:04:00;19.70;84.30
913;DHT22;443;51.448;7.028;2023-07-28T16:06:27;19.70;85.00
913;DHT22;443;51.448;7.028;2023-07-28T16:08:54;19.60;84.00
913;DHT22;443;51.448;7.028;2023-07-28T16:11:22;19.70;85.10
913;DHT22;443;51.448;7.028;2023-07-28T16:13:48;19.70;84.10
913;DHT22;443;51.448;7.028;2023-07-28T16:16:15;19.70;84.40
913;DHT22;443;51.448;7.028;2023-07-28T16:18:42;19.60;85.00
913;DHT22;443;51.448;7.028;2023-07-28T16:21:09;19.60;85.00
913;DHT22;443;51.448;7.028;2023-07-28T16:23:36;19.60;84.30
913;DHT22;443;51.448;7.028;2023-07-28T16:26:02;19.60;85.40
913;DHT22;443;51.448;7.028;2023-07-28T16:28:31;19.70;85.00
913;DHT22;443;51.448;7.028;2023-07-28T16:30:57;19.70;84.10
913;DHT22;443;51.448;7.028;2023-07-28T16:33:24;19.60;84.30
913;DHT22;443;51.448;7.028;2023-07-28T16:35:51;19.70;84.80